Time;durP1;ratioP1;P1;durP2;ratioP2;P2;SDS_P1;SDS_P2;PMS_P1;PMS_P2;Temp;Humidity;BMP_temperature;BMP_pressure;BME280_temperature;BME280_humidity;BME280_pressure;Samples;Min_cycle;Max_cycle;Signal;HPM_P1;HPM_P2
2021/06/28 00:01:31;;;;;;;7.70;7.00;;;20.20;98.40;;;;;;5013549;28;20439;-76
2021/06/28 00:04:00;;;;;;;6.53;5.93;;;20.20;98.50;;;;;;5011935;28;20455;-76
2021/06/28 00:06:30;;;;;;;7.77;7.07;;;20.20;98.50;;;;;;5014019;28;20468;-76
2021/06/28 00:08:58;;;;;;;8.53;7.73;;;20.10;98.50;;;;;;5013215;28;20490;-75
2021/06/28 00:11:26;;;;;;;8.00;7.30;;;20.10;98.50;;;;;;5013013;28;20555;-77
2021/06/28 00:13:55;;;;;;;7.40;6.80;;;20.10;98.60;;;;;;5014225;28;20475;-76
2021/06/28 00:16:24;;;;;;;7.87;7.17;;;20.10;98.60;;;;;;5013614;28;20549;-76
2021/06/28 00:18:55;;;;;;;7.60;6.90;;;20.00;98.60;;;;;;5012116;28;20452;-78
2021/06/28 00:21:23;;;;;;;7.23;6.63;;;20.00;98.70;;;;;;5012944;28;20809;-76
2021/06/28 00:23:53;;;;;;;7.20;6.60;;;20.00;98.70;;;;;;5014187;28;20451;-76
2021/06/28 00:26:21;;;;;;;8.10;7.40;;;19.90;98.70;;;;;;5013394;28;20494;-76
2021/06/28 00:28:49;;;;;;;7.70;7.00;;;19.90;98.80;;;;;;5011429;28;20459;-76
2021/06/28 00:31:17;;;;;;;8.53;7.63;;;19.90;99.10;;;;;;5013676;28;20182;-77
2021/06/28 00:33:46;;;;;;;7.63;6.63;;;19.90;99.00;;;;;;5013116;28;20447;-76
2021/06/28 00:36:14;;;;;;;9.27;8.47;;;19.80;99.00;;;;;;5012010;28;20457;-77
2021/06/28 00:38:42;;;;;;;8.20;7.20;;;19.80;99.10;;;;;;5013313;28;20471;-76
2021/06/28 00:41:12;;;;;;;8.20;7.40;;;19.80;99.10;;;;;;5012901;28;20446;-76
2021/06/28 00:43:40;;;;;;;7.97;7.20;;;19.70;99.20;;;;;;5013634;28;20457;-76
2021/06/28 00:46:08;;;;;;;9.27;8.23;;;19.70;99.20;;;;;;5012294;28;20465;-76
2021/06/28 00:48:36;;;;;;;11.63;7.40;;;19.70;99.50;;;;;;5012915;28;20498;-76
2021/06/28 00:51:05;;;;;;;7.87;7.13;;;19.60;99.30;;;;;;5015113;28;20440;-76
2021/06/28 00:53:33;;;;;;;8.20;7.50;;;19.60;99.30;;;;;;5016504;28;20513;-77
2021/06/28 00:56:10;;;;;;;7.67;6.97;;;19.60;99.30;;;;;;5015689;28;20849;-77
2021/06/28 00:58:41;;;;;;;8.47;7.67;;;19.50;99.40;;;;;;5014981;28;20534;-76
2021/06/28 01:01:11;;;;;;;8.63;7.93;;;19.50;99.40;;;;;;5016559;28;20535;-77
2021/06/28 01:03:40;;;;;;;7.43;6.73;;;19.50;99.50;;;;;;5016343;28;20450;-75
2021/06/28 01:06:10;;;;;;;9.47;8.20;;;19.50;99.50;;;;;;5016833;28;20902;-76
2021/06/28 01:08:39;;;;;;;8.90;8.10;;;19.40;99.50;;;;;;5016658;28;20483;-76
2021/06/28 01:11:07;;;;;;;7.53;6.93;;;19.40;99.60;;;;;;5016222;28;20541;-76
2021/06/28 01:13:40;;;;;;;7.93;7.10;;;19.30;99.60;;;;;;5016371;28;20546;-76
2021/06/28 01:16:10;;;;;;;9.53;8.60;;;19.40;99.70;;;;;;5016022;28;20503;-76
2021/06/28 01:18:39;;;;;;;10.00;7.50;;;19.30;99.70;;;;;;5016183;28;20937;-76
2021/06/28 01:21:09;;;;;;;10.20;9.13;;;19.30;99.80;;;;;;5016084;28;20483;-76
2021/06/28 01:23:38;;;;;;;9.00;8.10;;;19.30;99.80;;;;;;5013728;28;20451;-76
2021/06/28 01:26:11;;;;;;;8.03;7.33;;;19.30;99.90;;;;;;5014426;28;20203;-75
2021/06/28 01:28:40;;;;;;;10.13;7.97;;;19.30;99.90;;;;;;5009146;28;20543;-77
2021/06/28 01:31:11;;;;;;;8.20;7.40;;;19.20;99.90;;;;;;5017847;28;20485;-77
2021/06/28 01:33:40;;;;;;;8.27;7.23;;;19.20;99.90;;;;;;5014649;28;20810;-77
2021/06/28 01:36:09;;;;;;;9.68;7.95;;;19.10;99.90;;;;;;5013557;28;20537;-77
2021/06/28 01:38:38;;;;;;;8.33;7.30;;;19.20;99.90;;;;;;5015071;28;20293;-77
2021/06/28 01:41:06;;;;;;;8.20;7.40;;;19.20;99.90;;;;;;5015598;28;20453;-77
2021/06/28 01:43:35;;;;;;;10.80;6.80;;;19.10;99.90;;;;;;5016109;28;20539;-77
2021/06/28 03:37:24;;;;;;;11.00;9.90;;;18.30;99.90;;;;;;5052786;28;20473;-77
2021/06/28 03:39:53;;;;;;;9.73;8.80;;;18.30;99.90;;;;;;5037173;28;20484;-77
2021/06/28 03:42:21;;;;;;;9.07;8.20;;;18.30;99.90;;;;;;5054990;28;20451;-78
2021/06/28 03:44:49;;;;;;;9.43;8.50;;;18.30;99.90;;;;;;5036820;28;20863;-78
2021/06/28 03:47:17;;;;;;;11.10;8.23;;;18.30;99.90;;;;;;5054739;28;20526;-78
2021/06/28 03:49:45;;;;;;;9.07;8.07;;;18.30;99.90;;;;;;5037189;28;21038;-78
2021/06/28 03:52:14;;;;;;;11.77;10.07;;;18.30;99.90;;;;;;5036923;28;20897;-77
2021/06/28 03:54:43;;;;;;;9.70;8.70;;;18.30;99.90;;;;;;5055140;28;20913;-78
2021/06/28 03:57:11;;;;;;;10.17;9.17;;;18.30;99.90;;;;;;5038174;28;20460;-79
2021/06/28 03:59:40;;;;;;;10.13;9.13;;;18.30;99.90;;;;;;5039487;28;20504;-78
2021/06/28 04:02:11;;;;;;;10.37;8.93;;;18.30;99.90;;;;;;5039874;28;20513;-79
2021/06/28 04:04:39;;;;;;;9.93;8.70;;;18.30;99.90;;;;;;5039183;28;20505;-79
2021/06/28 04:07:11;;;;;;;9.57;8.57;;;18.30;99.90;;;;;;5037233;28;20547;-78
2021/06/28 04:09:39;;;;;;;9.97;8.97;;;18.30;99.90;;;;;;5039452;28;20512;-79
2021/06/28 04:12:10;;;;;;;10.50;9.40;;;18.30;99.90;;;;;;5038745;28;20511;-78
2021/06/28 04:14:38;;;;;;;10.20;9.20;;;18.40;99.90;;;;;;5039350;28;20220;-79
2021/06/28 04:17:10;;;;;;;10.23;9.23;;;18.30;99.90;;;;;;5039380;28;20528;-79
2021/06/28 04:19:38;;;;;;;10.30;9.30;;;18.40;99.90;;;;;;5038447;28;20499;-78
2021/06/28 04:22:06;;;;;;;10.47;9.37;;;18.40;99.90;;;;;;5038935;28;20503;-79
2021/06/28 04:24:35;;;;;;;11.20;10.10;;;18.40;99.90;;;;;;5038938;28;20774;-78
2021/06/28 04:27:03;;;;;;;9.50;8.60;;;18.40;99.90;;;;;;5042167;28;20207;-78
2021/06/28 04:29:33;;;;;;;10.70;9.70;;;18.50;99.90;;;;;;5042767;28;22367;-78
2021/06/28 04:32:01;;;;;;;10.70;9.70;;;18.50;99.90;;;;;;5042346;28;20442;-79
2021/06/28 04:34:29;;;;;;;10.30;9.30;;;18.50;99.90;;;;;;5042605;28;20461;-79
2021/06/28 04:36:57;;;;;;;8.93;8.13;;;18.60;99.90;;;;;;5042537;28;20464;-79
2021/06/28 04:39:25;;;;;;;10.03;9.13;;;18.60;99.90;;;;;;5042896;28;20473;-78
2021/06/28 04:41:54;;;;;;;12.73;9.53;;;18.60;99.90;;;;;;5061877;28;20477;-79
2021/06/28 04:44:22;;;;;;;11.27;10.17;;;18.60;99.90;;;;;;5048474;28;20456;-78
2021/06/28 04:46:51;;;;;;;10.13;9.00;;;18.60;99.90;;;;;;5047394;28;20452;-79
2021/06/28 04:49:20;;;;;;;11.70;10.43;;;18.60;99.90;;;;;;5043018;28;20487;-78
2021/06/28 04:51:48;;;;;;;11.50;9.63;;;18.70;99.90;;;;;;5042396;28;20475;-79
2021/06/28 04:54:16;;;;;;;10.97;9.97;;;18.70;99.90;;;;;;5060156;28;20468;-78
2021/06/28 04:56:44;;;;;;;11.07;10.10;;;18.70;99.90;;;;;;5042666;28;20460;-78
2021/06/28 04:59:15;;;;;;;11.00;10.00;;;18.70;99.90;;;;;;5042226;28;20474;-77
2021/06/28 05:01:43;;;;;;;11.20;10.10;;;18.70;99.90;;;;;;5042437;28;20454;-78
2021/06/28 05:04:13;;;;;;;11.80;10.60;;;18.80;99.90;;;;;;5042414;28;21010;-78
2021/06/28 05:06:41;;;;;;;17.53;9.70;;;18.80;99.90;;;;;;5040368;28;20472;-78
2021/06/28 05:09:09;;;;;;;10.17;9.17;;;18.80;99.90;;;;;;5021272;28;20557;-78
2021/06/28 05:11:38;;;;;;;11.20;10.10;;;18.90;99.90;;;;;;5021561;28;20466;-78
2021/06/28 05:14:08;;;;;;;11.93;10.23;;;18.90;99.90;;;;;;5021730;28;20819;-78
2021/06/28 05:16:36;;;;;;;15.10;13.60;;;18.90;99.90;;;;;;5021719;28;20452;-78
2021/06/28 05:19:04;;;;;;;13.03;10.00;;;19.00;99.90;;;;;;5040318;28;20832;-79
2021/06/28 05:21:38;;;;;;;13.43;12.03;;;19.00;99.90;;;;;;5021614;28;20496;-78
2021/06/28 05:24:06;;;;;;;13.15;11.85;;;19.00;99.90;;;;;;5020463;28;20449;-78
2021/06/28 05:26:35;;;;;;;11.13;10.23;;;19.10;99.90;;;;;;5040371;28;20191;-78
2021/06/28 05:29:03;;;;;;;10.33;9.43;;;19.10;99.90;;;;;;5021966;28;20479;-78
2021/06/28 05:31:31;;;;;;;11.83;10.73;;;19.10;99.90;;;;;;5021850;28;20497;-79
2021/06/28 05:34:00;;;;;;;12.17;10.87;;;19.10;99.90;;;;;;5022358;28;20450;-78
2021/06/28 05:36:28;;;;;;;10.57;9.60;;;19.10;99.90;;;;;;5020719;28;20549;-78
2021/06/28 05:38:57;;;;;;;11.40;10.40;;;19.20;99.90;;;;;;5021885;28;20473;-78
2021/06/28 05:41:26;;;;;;;10.97;9.97;;;19.10;99.90;;;;;;5036315;28;20500;-77
2021/06/28 05:43:54;;;;;;;15.40;11.93;;;19.10;99.90;;;;;;5017544;28;20450;-77
2021/06/28 05:46:22;;;;;;;12.10;10.90;;;19.20;99.90;;;;;;5017550;28;20482;-77
2021/06/28 05:48:50;;;;;;;11.87;10.40;;;19.20;99.90;;;;;;5035389;28;20862;-77
2021/06/28 05:51:20;;;;;;;12.83;10.23;;;19.20;99.90;;;;;;5017277;28;21014;-77
2021/06/28 05:53:49;;;;;;;10.90;9.90;;;19.20;99.90;;;;;;5035436;28;20506;-77
2021/06/28 05:56:20;;;;;;;10.57;9.57;;;19.20;99.90;;;;;;5017273;28;21010;-77
2021/06/28 05:58:48;;;;;;;12.83;11.00;;;19.20;99.90;;;;;;5017164;28;20446;-77
2021/06/28 06:01:16;;;;;;;11.40;10.40;;;19.30;99.90;;;;;;5017723;28;20955;-76
2021/06/28 06:03:45;;;;;;;11.00;10.00;;;19.30;99.90;;;;;;5017587;28;20461;-76
2021/06/28 06:06:13;;;;;;;12.57;11.37;;;19.30;99.90;;;;;;5017211;28;20480;-77
2021/06/28 06:08:41;;;;;;;12.20;11.20;;;19.30;99.90;;;;;;5018488;28;20442;-77
2021/06/28 06:11:11;;;;;;;12.35;11.15;;;19.30;99.90;;;;;;5018262;28;20485;-78
2021/06/28 06:13:45;;;;;;;10.90;9.80;;;19.40;99.90;;;;;;5021271;28;20192;-78
2021/06/28 06:16:13;;;;;;;10.70;9.80;;;19.40;99.90;;;;;;5038170;28;20979;-78
2021/06/28 06:18:41;;;;;;;11.80;10.80;;;19.50;99.90;;;;;;5019820;28;20523;-77
2021/06/28 06:21:14;;;;;;;12.90;11.03;;;19.50;99.90;;;;;;5038023;28;20437;-78
2021/06/28 06:23:42;;;;;;;12.33;11.33;;;19.50;99.90;;;;;;5038399;28;20862;-78
2021/06/28 06:26:10;;;;;;;11.60;10.30;;;19.60;99.90;;;;;;5037134;28;20480;-78
2021/06/28 06:28:38;;;;;;;12.73;11.40;;;19.60;99.90;;;;;;5037104;28;20537;-78
2021/06/28 06:31:08;;;;;;;15.40;13.10;;;19.60;99.90;;;;;;5019163;28;20523;-78
2021/06/28 06:33:38;;;;;;;12.87;11.67;;;19.60;99.90;;;;;;5019521;28;20557;-78
2021/06/28 06:36:07;;;;;;;10.60;9.70;;;19.70;99.90;;;;;;5019720;28;20475;-78
2021/06/28 06:38:35;;;;;;;12.00;10.90;;;19.70;99.90;;;;;;5019448;28;20461;-78
2021/06/28 06:41:04;;;;;;;13.17;11.97;;;19.70;99.90;;;;;;5019479;28;20985;-78
2021/06/28 06:43:32;;;;;;;12.63;11.43;;;19.70;99.90;;;;;;5019128;28;20856;-78
2021/06/28 06:46:00;;;;;;;14.43;13.00;;;19.80;99.90;;;;;;5019066;28;20451;-78
2021/06/28 06:48:30;;;;;;;11.60;10.47;;;19.80;99.90;;;;;;5018618;28;20974;-78
2021/06/28 06:50:58;;;;;;;13.73;12.37;;;19.80;99.90;;;;;;5018692;28;20991;-77
2021/06/28 06:53:27;;;;;;;12.47;11.17;;;19.80;99.90;;;;;;5019248;28;20470;-78
2021/06/28 06:55:55;;;;;;;12.57;11.37;;;19.90;99.90;;;;;;5019432;28;20501;-78
2021/06/28 06:58:23;;;;;;;13.03;11.70;;;19.90;99.90;;;;;;5036949;28;20478;-78
2021/06/28 07:00:51;;;;;;;13.47;12.17;;;19.90;99.90;;;;;;5018761;28;20466;-78
2021/06/28 07:03:20;;;;;;;13.50;12.30;;;19.90;99.90;;;;;;5036932;28;20517;-78
2021/06/28 07:05:50;;;;;;;12.90;11.60;;;19.90;99.90;;;;;;5019155;28;20494;-78
2021/06/28 07:08:18;;;;;;;13.00;11.83;;;20.00;99.90;;;;;;5037153;28;20504;-78
2021/06/28 07:10:46;;;;;;;12.75;11.55;;;20.00;99.90;;;;;;5017554;28;20934;-78
2021/06/28 07:13:15;;;;;;;12.07;10.87;;;20.00;99.90;;;;;;5037481;28;20608;-78
2021/06/28 07:15:43;;;;;;;11.93;10.83;;;20.10;99.90;;;;;;5019826;28;20450;-78
2021/06/28 07:18:11;;;;;;;11.43;10.27;;;20.10;99.90;;;;;;5018920;28;20537;-78
2021/06/28 07:20:40;;;;;;;13.17;11.97;;;20.10;99.90;;;;;;5036563;28;20546;-78
2021/06/28 07:23:10;;;;;;;12.30;11.10;;;20.20;99.90;;;;;;5034047;28;20802;-78
2021/06/28 07:25:38;;;;;;;12.67;11.47;;;20.30;99.90;;;;;;5036509;28;20324;-78
2021/06/28 07:28:07;;;;;;;12.37;11.30;;;20.40;99.90;;;;;;5036217;28;20462;-78
2021/06/28 07:30:36;;;;;;;13.40;11.80;;;20.50;99.90;;;;;;5036099;28;20452;-78
2021/06/28 07:33:05;;;;;;;12.90;11.57;;;20.50;99.90;;;;;;5018676;28;20467;-78
2021/06/28 07:35:34;;;;;;;12.60;11.40;;;20.60;99.90;;;;;;5018169;28;20457;-78
2021/06/28 07:38:03;;;;;;;13.77;12.30;;;20.70;99.90;;;;;;5020177;28;20451;-78
2021/06/28 07:40:32;;;;;;;13.67;12.47;;;20.70;99.90;;;;;;5024370;28;20510;-78
2021/06/28 07:43:01;;;;;;;14.40;13.00;;;20.80;99.90;;;;;;5019921;28;20530;-79
2021/06/28 07:45:29;;;;;;;12.27;11.27;;;20.90;99.90;;;;;;5019217;28;20443;-78
2021/06/28 08:13:01;;;;;;;12.33;11.23;;;23.10;99.90;;;;;;2955258;26;20250;-76
2021/06/28 08:15:29;;;;;;;12.53;11.00;;;23.40;99.90;;;;;;5076331;28;20560;-76
2021/06/28 08:17:57;;;;;;;13.00;11.77;;;23.50;99.90;;;;;;5075597;28;20540;-77
2021/06/28 08:20:26;;;;;;;11.50;10.40;;;23.70;99.90;;;;;;5076886;28;20977;-76
2021/06/28 08:22:54;;;;;;;12.27;11.17;;;23.90;99.90;;;;;;5075041;28;20480;-76
2021/06/28 08:25:25;;;;;;;11.27;10.27;;;24.10;99.90;;;;;;5076236;28;20495;-76
2021/06/28 08:27:53;;;;;;;10.43;9.53;;;24.30;99.90;;;;;;5075618;28;20524;-76
2021/06/28 08:30:23;;;;;;;11.40;10.40;;;24.40;99.90;;;;;;5075631;28;21103;-76
2021/06/28 08:32:51;;;;;;;10.97;9.80;;;24.50;99.90;;;;;;5076437;28;20469;-76
2021/06/28 08:35:20;;;;;;;10.40;9.40;;;24.70;99.90;;;;;;5076945;28;20429;-76
2021/06/28 08:37:48;;;;;;;11.27;10.37;;;24.80;99.90;;;;;;5075006;28;20546;-75
2021/06/28 08:40:16;;;;;;;11.73;10.40;;;25.00;99.90;;;;;;5076309;28;20450;-76
2021/06/28 08:42:45;;;;;;;10.33;9.43;;;25.20;99.90;;;;;;5075232;28;20446;-76
2021/06/28 08:45:14;;;;;;;10.47;9.47;;;25.20;99.90;;;;;;5076294;28;20433;-76
2021/06/28 08:47:44;;;;;;;11.03;10.00;;;25.40;99.90;;;;;;5075261;28;20437;-76
2021/06/28 08:50:13;;;;;;;10.37;9.37;;;25.50;99.90;;;;;;5076452;28;20456;-76
2021/06/28 08:52:44;;;;;;;9.93;9.03;;;25.70;99.90;;;;;;5076347;28;20465;-75
2021/06/28 08:55:13;;;;;;;10.73;9.63;;;25.80;99.90;;;;;;5076772;28;20445;-76
2021/06/28 08:57:41;;;;;;;13.27;11.90;;;26.00;99.90;;;;;;5076088;28;20461;-76
2021/06/28 09:00:13;;;;;;;9.57;8.87;;;26.10;99.90;;;;;;5075895;28;20457;-75
2021/06/28 09:02:44;;;;;;;9.17;8.37;;;26.20;99.90;;;;;;5075188;28;20957;-76
2021/06/28 09:05:13;;;;;;;9.73;8.90;;;26.40;99.90;;;;;;5076284;28;20414;-76
2021/06/28 09:07:41;;;;;;;10.02;9.13;;;26.50;99.90;;;;;;5075778;28;20452;-76
2021/06/28 09:10:33;;;;;;;10.17;9.27;;;26.60;99.90;;;;;;5075789;28;20247;-76
2021/06/28 09:13:02;;;;;;;11.77;9.87;;;26.80;99.90;;;;;;5075024;28;20480;-76
2021/06/28 09:15:35;;;;;;;14.90;10.73;;;26.90;99.90;;;;;;5076306;28;20441;-76
2021/06/28 09:18:20;;;;;;;9.13;8.23;;;27.00;99.60;;;;;;5075980;28;20426;-76
2021/06/28 09:20:50;;;;;;;7.90;7.20;;;27.10;99.40;;;;;;5076658;28;20552;-75
2021/06/28 09:23:23;;;;;;;7.30;6.70;;;27.30;99.10;;;;;;5074334;28;20480;-76
2021/06/28 09:25:54;;;;;;;9.47;7.43;;;27.40;98.60;;;;;;5076286;28;20426;-76
2021/06/28 09:28:36;;;;;;;7.30;6.60;;;27.40;98.40;;;;;;5076551;28;20965;-76
2021/06/28 09:31:04;;;;;;;6.77;6.20;;;27.60;98.10;;;;;;5074240;28;20449;-76
2021/06/28 09:33:34;;;;;;;7.13;6.60;;;27.70;98.00;;;;;;5076667;28;20511;-76
2021/06/28 09:36:18;;;;;;;7.33;6.83;;;27.80;97.80;;;;;;5074859;28;20434;-77
2021/06/28 09:38:47;;;;;;;8.07;7.37;;;28.00;97.40;;;;;;5075693;28;20508;-76
2021/06/28 09:41:27;;;;;;;7.60;7.00;;;28.10;97.30;;;;;;5076243;28;20540;-76
2021/06/28 09:44:01;;;;;;;6.87;6.37;;;28.20;97.00;;;;;;5075686;28;20768;-76
2021/06/28 09:46:30;;;;;;;6.10;5.60;;;28.30;96.70;;;;;;5075882;28;20904;-75
2021/06/28 09:49:00;;;;;;;7.67;7.07;;;28.40;96.50;;;;;;5075134;28;20491;-75
2021/06/28 09:51:29;;;;;;;6.27;5.77;;;28.50;96.40;;;;;;5073848;28;20540;-75
2021/06/28 09:54:17;;;;;;;7.00;6.50;;;28.60;96.20;;;;;;5075812;28;20465;-75
2021/06/28 09:56:48;;;;;;;6.97;6.40;;;28.70;95.40;;;;;;5073817;28;20437;-75
2021/06/28 09:59:25;;;;;;;6.73;6.30;;;28.80;95.50;;;;;;5075851;28;20552;-75
2021/06/28 10:02:18;;;;;;;6.87;6.37;;;28.90;95.30;;;;;;5075392;28;20440;-76
2021/06/28 10:05:10;;;;;;;8.30;7.60;;;29.00;94.90;;;;;;5074936;28;20426;-75
2021/06/28 10:07:40;;;;;;;7.10;6.40;;;29.10;94.70;;;;;;5074798;28;20478;-75
2021/06/28 10:10:19;;;;;;;7.00;6.50;;;29.20;94.70;;;;;;5074741;28;20449;-75
2021/06/28 10:12:49;;;;;;;7.07;6.57;;;29.30;94.30;;;;;;5073998;28;20581;-77
2021/06/28 10:15:19;;;;;;;8.50;7.63;;;29.30;94.50;;;;;;5074135;28;20450;-77
2021/06/28 10:17:48;;;;;;;7.50;6.90;;;29.40;93.80;;;;;;5073948;28;20438;-77
2021/06/28 10:20:20;;;;;;;7.60;6.90;;;29.50;91.70;;;;;;5075593;28;20480;-77
2021/06/28 10:22:50;;;;;;;7.43;6.83;;;29.40;91.70;;;;;;5074558;28;20425;-76
2021/06/28 10:25:20;;;;;;;8.13;7.53;;;29.40;92.00;;;;;;5074604;28;20481;-77
2021/06/28 10:27:49;;;;;;;7.27;6.67;;;29.40;91.80;;;;;;5074737;28;20413;-77
2021/06/28 10:30:25;;;;;;;7.70;7.20;;;29.40;92.00;;;;;;5073077;28;20473;-77
2021/06/28 10:32:59;;;;;;;7.80;7.23;;;29.40;92.00;;;;;;5075066;28;20454;-76
2021/06/28 10:35:33;;;;;;;7.20;6.70;;;29.50;91.90;;;;;;5074259;28;20512;-76
2021/06/28 10:38:05;;;;;;;6.83;6.23;;;29.50;91.30;;;;;;5074378;28;20464;-76
2021/06/28 10:41:01;;;;;;;6.87;6.37;;;29.50;91.30;;;;;;5074433;28;20458;-76
2021/06/28 10:43:32;;;;;;;6.50;6.00;;;29.60;91.20;;;;;;5028383;28;20480;-76
2021/06/28 10:46:02;;;;;;;6.67;6.27;;;29.70;91.10;;;;;;5073359;28;20433;-76
2021/06/28 10:48:32;;;;;;;6.53;6.03;;;29.70;91.00;;;;;;5074044;28;20473;-77
2021/06/28 10:51:04;;;;;;;6.63;6.00;;;29.80;90.90;;;;;;5074652;28;20922;-77
2021/06/28 10:54:11;;;;;;;6.33;5.93;;;29.90;90.80;;;;;;5074793;28;20484;-76
2021/06/28 10:57:04;;;;;;;6.60;6.10;;;30.00;90.60;;;;;;5072698;28;20473;-76
2021/06/28 10:59:40;;;;;;;6.83;6.33;;;30.10;90.70;;;;;;5072863;28;20545;-76
2021/06/28 11:02:13;;;;;;;7.07;6.47;;;30.10;90.40;;;;;;5074117;28;20469;-75
2021/06/28 11:04:54;;;;;;;7.23;6.60;;;30.20;90.20;;;;;;5073454;28;20437;-76
2021/06/28 11:07:24;;;;;;;6.00;5.60;;;30.20;90.10;;;;;;5073811;28;20414;-76
2021/06/28 11:09:54;;;;;;;7.13;6.53;;;30.30;90.00;;;;;;5073763;28;20462;-76
2021/06/28 11:12:25;;;;;;;7.32;6.72;;;30.20;89.80;;;;;;5072318;28;20550;-76
2021/06/28 11:14:56;;;;;;;7.43;6.83;;;30.40;88.50;;;;;;5074110;28;20563;-76
2021/06/28 11:17:46;;;;;;;8.07;7.27;;;30.40;88.60;;;;;;5073268;28;20465;-76
2021/06/28 11:20:29;;;;;;;8.60;8.00;;;30.50;88.60;;;;;;5072976;28;20478;-74
2021/06/28 11:23:02;;;;;;;8.03;7.23;;;30.40;89.30;;;;;;5074696;28;20484;-76
2021/06/28 11:25:52;;;;;;;7.43;6.93;;;30.50;89.00;;;;;;5073348;28;20882;-76
2021/06/28 11:28:27;;;;;;;7.40;6.90;;;30.50;87.60;;;;;;5066957;28;20547;-76
2021/06/28 11:30:58;;;;;;;7.20;6.60;;;30.50;88.00;;;;;;5073998;28;20457;-76
2021/06/28 11:33:48;;;;;;;6.73;6.13;;;30.50;88.20;;;;;;5073319;28;20456;-76
2021/06/28 11:36:34;;;;;;;7.53;7.03;;;30.50;87.60;;;;;;5072048;28;20445;-76
2021/06/28 11:39:21;;;;;;;7.00;6.47;;;30.50;87.60;;;;;;5072792;28;20470;-76
2021/06/28 11:42:18;;;;;;;7.23;6.73;;;30.60;87.60;;;;;;5061308;28;20532;-75
2021/06/28 11:44:50;;;;;;;8.20;7.50;;;30.60;87.30;;;;;;5074907;28;20424;-76
2021/06/28 11:47:18;;;;;;;8.70;8.00;;;30.70;87.50;;;;;;5073432;28;20831;-76
2021/06/28 11:49:47;;;;;;;7.25;6.65;;;30.70;87.60;;;;;;5074235;28;20414;-77
2021/06/28 11:52:17;;;;;;;8.33;7.73;;;30.80;84.10;;;;;;5073082;28;20194;-76
2021/06/28 11:54:47;;;;;;;8.27;7.60;;;30.80;84.50;;;;;;5071749;28;20515;-75
2021/06/28 11:57:15;;;;;;;7.70;7.20;;;30.80;84.30;;;;;;5081424;28;20488;-75
2021/06/28 11:59:43;;;;;;;8.67;7.97;;;30.70;84.70;;;;;;5073024;28;20467;-76
2021/06/28 12:02:17;;;;;;;7.00;6.50;;;30.70;84.80;;;;;;5073793;28;20443;-76
2021/06/28 12:05:00;;;;;;;6.53;6.13;;;30.70;85.00;;;;;;5072045;28;20452;-76
2021/06/28 12:07:29;;;;;;;7.10;6.50;;;30.80;84.50;;;;;;5071372;28;20910;-75
2021/06/28 12:09:59;;;;;;;7.33;6.83;;;30.90;83.70;;;;;;5075907;28;20207;-75
2021/06/28 12:12:28;;;;;;;7.67;7.07;;;30.90;83.70;;;;;;5075378;28;20464;-74
2021/06/28 12:14:58;;;;;;;7.10;6.60;;;30.80;83.70;;;;;;5074874;28;20821;-74
2021/06/28 12:17:30;;;;;;;7.93;7.33;;;30.80;83.70;;;;;;5077965;28;20429;-75
2021/06/28 12:20:00;;;;;;;7.90;7.07;;;30.80;83.20;;;;;;5071570;28;20996;-75
2021/06/28 12:22:30;;;;;;;7.93;7.27;;;30.80;83.00;;;;;;5074490;28;20444;-75
2021/06/28 12:25:03;;;;;;;7.17;6.67;;;30.80;83.90;;;;;;5073056;28;20461;-74
2021/06/28 12:27:33;;;;;;;7.07;6.47;;;30.90;83.40;;;;;;5073168;28;20504;-76
2021/06/28 12:30:02;;;;;;;7.20;6.70;;;30.90;83.20;;;;;;5078776;28;20464;-75
2021/06/28 12:32:32;;;;;;;7.50;7.00;;;30.90;82.60;;;;;;5071461;28;20958;-75
2021/06/28 12:35:02;;;;;;;6.67;6.27;;;30.90;82.50;;;;;;5075313;28;20470;-79
2021/06/28 12:37:32;;;;;;;7.87;7.27;;;30.90;82.70;;;;;;5071470;28;20442;-76
2021/06/28 12:40:18;;;;;;;6.97;6.47;;;30.90;83.00;;;;;;5072844;28;21001;-75
2021/06/28 12:42:48;;;;;;;7.60;7.10;;;31.00;82.60;;;;;;5077089;28;20518;-75
2021/06/28 12:45:18;;;;;;;6.63;6.13;;;31.00;82.60;;;;;;5072289;28;20240;-76
2021/06/28 12:47:49;;;;;;;7.37;6.87;;;31.00;82.60;;;;;;5079690;28;20980;-76
2021/06/28 12:50:19;;;;;;;6.93;6.43;;;31.00;82.30;;;;;;5075024;28;20457;-76
2021/06/28 12:52:48;;;;;;;6.80;6.40;;;31.10;81.80;;;;;;5074972;28;20465;-76
2021/06/28 12:55:23;;;;;;;6.87;6.37;;;31.10;81.20;;;;;;5079793;28;21021;-75
2021/06/28 12:58:02;;;;;;;6.93;6.43;;;31.10;81.20;;;;;;5076135;28;20417;-76
2021/06/28 13:00:32;;;;;;;7.90;7.40;;;31.10;81.30;;;;;;5076125;28;20453;-76
2021/06/28 13:03:05;;;;;;;7.70;7.20;;;31.20;81.40;;;;;;5076031;28;20915;-75
2021/06/28 13:05:39;;;;;;;6.90;6.40;;;31.20;81.20;;;;;;5078098;28;20457;-75
2021/06/28 13:08:11;;;;;;;6.60;6.20;;;31.30;81.20;;;;;;5076242;28;20839;-75
2021/06/28 13:10:42;;;;;;;6.60;6.20;;;31.20;80.80;;;;;;5076290;28;20489;-75
2021/06/28 13:13:19;;;;;;;7.40;6.70;;;31.20;80.70;;;;;;5076878;28;20473;-74
2021/06/28 13:16:10;;;;;;;7.17;6.57;;;31.10;80.80;;;;;;5076508;28;20457;-74
2021/06/28 13:18:38;;;;;;;7.57;7.07;;;31.10;80.10;;;;;;5079796;28;20898;-73
2021/06/28 13:21:17;;;;;;;7.60;7.00;;;31.00;80.50;;;;;;5088480;28;20476;-75
2021/06/28 13:23:49;;;;;;;7.40;6.90;;;30.90;79.80;;;;;;5078313;28;20457;-74
2021/06/28 13:26:25;;;;;;;8.40;7.80;;;30.80;80.10;;;;;;5091204;28;20422;-75
2021/06/28 13:28:57;;;;;;;6.00;5.60;;;30.80;80.60;;;;;;5076510;28;20422;-75
2021/06/28 13:31:26;;;;;;;7.00;6.50;;;30.80;80.70;;;;;;5080682;28;20759;-75
2021/06/28 13:34:02;;;;;;;6.17;5.77;;;30.90;80.80;;;;;;5075726;28;20472;-73
2021/06/28 13:36:30;;;;;;;5.30;5.00;;;30.90;80.90;;;;;;5074219;28;20528;-74
2021/06/28 13:38:58;;;;;;;5.60;5.10;;;30.90;80.80;;;;;;5079773;28;20434;-73
2021/06/28 13:41:48;;;;;;;6.20;5.80;;;31.00;80.10;;;;;;5076933;28;20190;-74
2021/06/28 13:44:16;;;;;;;6.07;5.67;;;31.10;80.00;;;;;;5080978;28;20501;-75
2021/06/28 13:46:45;;;;;;;5.53;5.13;;;31.20;79.90;;;;;;5079740;28;20496;-76
2021/06/28 13:49:24;;;;;;;5.50;5.10;;;31.30;79.60;;;;;;5083194;22;20508;-75
2021/06/28 13:51:58;;;;;;;6.53;4.70;;;31.30;79.30;;;;;;5074070;28;20437;-75
2021/06/28 13:54:27;;;;;;;4.80;4.50;;;31.30;79.50;;;;;;5074078;28;20477;-75
2021/06/28 13:56:57;;;;;;;5.47;5.07;;;31.30;79.00;;;;;;5074729;28;20457;-75
2021/06/28 13:59:25;;;;;;;5.53;5.13;;;31.30;78.90;;;;;;5073734;28;20462;-75
2021/06/28 14:01:54;;;;;;;5.70;5.30;;;31.30;78.90;;;;;;5073781;28;20438;-75
2021/06/28 14:04:22;;;;;;;5.13;4.73;;;31.20;79.10;;;;;;5073711;28;20513;-75
2021/06/28 14:06:50;;;;;;;6.13;5.73;;;31.10;78.80;;;;;;5075249;28;20859;-75
2021/06/28 14:09:18;;;;;;;5.83;5.43;;;31.10;78.80;;;;;;5073740;28;20468;-75
2021/06/28 14:11:47;;;;;;;5.60;5.20;;;31.00;78.90;;;;;;5074846;28;20477;-75
2021/06/28 14:14:16;;;;;;;5.93;5.43;;;31.00;78.90;;;;;;5074766;28;20469;-76
2021/06/28 14:16:44;;;;;;;6.17;5.70;;;30.90;78.90;;;;;;5074703;28;20465;-75
2021/06/28 14:19:12;;;;;;;6.97;6.47;;;30.90;79.20;;;;;;5073375;28;20507;-75
2021/06/28 14:21:41;;;;;;;6.17;5.53;;;30.90;79.30;;;;;;5075174;28;20802;-75
2021/06/28 14:24:09;;;;;;;6.10;5.60;;;30.90;79.50;;;;;;5073334;28;20541;-75
2021/06/28 14:26:37;;;;;;;5.70;5.30;;;30.90;79.80;;;;;;5073354;28;20963;-76
2021/06/28 14:29:05;;;;;;;6.87;6.37;;;30.80;79.80;;;;;;5074513;28;20818;-76
2021/06/28 14:31:35;;;;;;;5.77;5.37;;;30.80;80.00;;;;;;5074788;28;20438;-76
2021/06/28 14:34:04;;;;;;;5.83;5.43;;;30.80;80.10;;;;;;5073183;28;20457;-76
2021/06/28 14:36:32;;;;;;;5.93;5.37;;;30.80;80.30;;;;;;5073535;28;20466;-76
2021/06/28 14:39:00;;;;;;;5.90;5.43;;;30.80;80.30;;;;;;5072939;28;20548;-76
2021/06/28 14:41:28;;;;;;;6.60;6.00;;;30.80;80.20;;;;;;5074454;28;20437;-76
2021/06/28 14:43:56;;;;;;;5.90;5.40;;;30.80;80.20;;;;;;5074490;28;20433;-76
2021/06/28 14:46:24;;;;;;;5.60;5.20;;;30.80;80.20;;;;;;5074698;28;20482;-76
2021/06/28 14:48:54;;;;;;;5.87;5.47;;;30.80;80.20;;;;;;5074301;28;20444;-76
2021/06/28 14:51:22;;;;;;;6.93;6.43;;;30.80;80.80;;;;;;5074057;28;20532;-76
2021/06/28 14:53:50;;;;;;;5.40;4.90;;;30.80;80.50;;;;;;5073017;28;20446;-76
2021/06/28 14:56:19;;;;;;;5.70;5.20;;;30.80;80.50;;;;;;5072548;28;20984;-76
2021/06/28 14:58:47;;;;;;;5.33;4.93;;;30.80;79.70;;;;;;5073802;28;20491;-77
2021/06/28 15:01:15;;;;;;;5.60;5.20;;;30.80;79.60;;;;;;5072872;28;20448;-77
2021/06/28 15:03:43;;;;;;;6.43;5.97;;;30.80;79.90;;;;;;5074346;28;20434;-77
2021/06/28 15:06:13;;;;;;;5.87;5.40;;;30.80;81.00;;;;;;5072736;28;20460;-76
2021/06/28 15:08:41;;;;;;;7.50;5.90;;;30.80;80.50;;;;;;5071911;28;20480;-75
2021/06/28 15:11:10;;;;;;;6.00;5.60;;;30.80;80.50;;;;;;5072177;28;20441;-75
2021/06/28 15:13:38;;;;;;;6.07;5.67;;;30.80;80.50;;;;;;5073709;28;20480;-75
2021/06/28 15:16:08;;;;;;;5.37;4.97;;;30.70;80.60;;;;;;5072559;28;20885;-74